Galena, Nevada Weather observations

Data are for 10 minute period ending at time listed.
 Day   Time    Ave.   Ave.  Ave.  Vector   Max.   Total    Solar   
  of    of     Air    Rel.  Wind   Wind    Wind  Precip.   Rad.    
Year   Day     Temp.  Hum.  Speed  Dir.    Gust                    
2016   (PST)    F      %     mph   deg.    mph     in.     W/m2    
------------------------------------------------------------------- 
 271   23:00   65.0    21    4.0   262     10.0    0.02       0  
 272    0:00   62.0    24    3.0   234      6.0    0.02       0  
 272    1:00   65.0    21    4.0   267     10.0    0.02       0  
 272    2:00   61.0    25    3.0   238      6.0    0.02       0  
 272    3:00   61.0    24    4.0   221      7.0    0.02       0  
 272    4:00   58.0    26    0.0   220      4.0    0.02       0  
 272    5:00   58.0    25    2.0   299      4.0    0.02       0  
 272    6:00   59.0    25    3.0   224      7.0    0.02       0  
 272    7:00   63.0    25    2.0   240      5.0    0.02      76  
 272    8:00   71.0    21    2.0   185      5.0    0.02     276  
 272    9:00   75.0    18    3.0   132      6.0    0.02     468  
 272   10:00   77.0    18    3.0   127      8.0    0.02     580  
 272   11:00   79.0    16    5.0    55      9.0    0.02     741  
 272   12:00   81.0    15    5.0    44     10.0    0.02     798  
 272   13:00   83.0    12    5.0     5     13.0    0.02     796  
 272   14:00   84.0    13    8.0    32     16.0    0.02     712  
 272   15:00   83.0    13    4.0   291     11.0    0.02     490  
 272   16:00   77.0    20   11.0   277     23.0    0.02     203  
 272   17:00   72.0    24   13.0   282     29.0    0.02      63  
 272   18:00   72.0    23   11.0   283     21.0    0.02      21  
 272   19:00   70.0    23    5.0   236     18.0    0.02       0  
 272   20:00   69.0    27    5.0   283     16.0    0.02       0  
 272   21:00   65.0    29    6.0   322     11.0    0.02       0  
 272   22:00   63.0    31    2.0   213      7.0    0.02       0  

Return to Galena, Nevada graphs page.


Western Regional Climate Center,wrcc@dri.edu